Aérodrome :
LOGIN :

S'inscrire | Disclaimer

   EN    FR    IT 

 










Légende :    VFR   VFR Marginal   IFR   IFR Intensif   IFR Très Intensif
Visi : 
Plafond : 
>= 8 km
>= 3000ft
5 à 8 km
1000 à 3000 ft
1500m à 5 km
500 à 1000 ft
800 à 1500m
200 à 500 ft
< 800m
< 200 ft
Symboles :   Orages  Brouillard  Fortes neiges  Fortes précipitations  Vent > 20 kt
SIGMETs :   Divers  Orages  Givrage  Turbulence  Onde Orograph.  Cendres Volcan.






- Altitude de l'aérodrome : 465 ft
- Code IATA : LEJ


EDDP - Leipzig Halle

DERNIER METAR :
  • 210120Z 29011KT CAVOK M02/M06 Q1026 NOSIG

METARs EXPIRÉS :
  • 210050Z 30012KT CAVOK M02/M06 Q1025 NOSIG
  • 210020Z 29011KT CAVOK M02/M06 Q1025 NOSIG
  • 202350Z 29011KT CAVOK M01/M06 Q1025 NOSIG
  • 202320Z 29012KT CAVOK M01/M06 Q1024 NOSIG
  • 202250Z 30012KT CAVOK M01/M06 Q1024 NOSIG

TAF TAF EDDP
Valide du 21 à 00h jusqu'au 22 à 00h UTC


202300Z 2100/2124 30010KT CAVOK
PROB30
TEMPO 2107/2111 2000 -SN BKN008
TEMPO 2118/2121 2000 -SN BKN009
TEMPO 2121/2124 BKN010



MET'MAP, la Météo Aéronautique d'un coup d'oeil ! - Copyright ORBIFLY Décembre 2007 - Disclaimer

ORBIFLY MET'MAP TEAM :

Programmation & Développement : Alexandra Zaïnal
Sur une idée originale de : Baudouin d'Aumeries
Assistance à la programmation : Marc-Olivier Méhu
Soutien technique & logistique : Manuel Goepfert

Contact : metmap@orbifly.com




SOURCES & CREDITS :

   NOAA